Time;durP1;ratioP1;P1;durP2;ratioP2;P2;SDS_P1;SDS_P2;PMS_P1;PMS_P2;Temp;Humidity;BMP_temperature;BMP_pressure;BME280_temperature;BME280_humidity;BME280_pressure;Samples;Min_cycle;Max_cycle;Signal;HPM_P1;HPM_P2
2023/10/29 00:02:24;;;;;;;0.03;0.03;;;11.70;99.90;;;;;;4985761;28;20116;-66
2023/10/29 00:04:50;;;;;;;0.52;0.35;;;11.60;99.90;;;;;;4978960;28;20038;-65
2023/10/29 00:07:16;;;;;;;0.20;0.20;;;11.60;99.90;;;;;;4992363;28;20049;-66
2023/10/29 00:09:42;;;;;;;0.17;0.17;;;11.60;99.90;;;;;;4983147;28;20161;-65
2023/10/29 00:12:07;;;;;;;0.40;0.40;;;11.70;99.90;;;;;;4987562;28;20048;-66
2023/10/29 00:14:33;;;;;;;0.30;0.30;;;11.70;99.90;;;;;;4983106;28;20035;-66
2023/10/29 00:16:58;;;;;;;0.10;0.10;;;11.70;99.90;;;;;;4981167;28;20066;-66
2023/10/29 00:19:24;;;;;;;0.00;0.00;;;11.70;99.90;;;;;;4989461;28;20050;-66
2023/10/29 00:21:49;;;;;;;0.10;0.10;;;11.70;99.90;;;;;;4982039;28;20035;-65
2023/10/29 00:24:15;;;;;;;0.10;0.10;;;11.70;99.90;;;;;;4988020;28;20441;-65
2023/10/29 00:26:41;;;;;;;0.10;0.10;;;11.70;99.90;;;;;;4988880;28;20047;-65
2023/10/29 00:29:07;;;;;;;0.20;0.20;;;11.70;99.90;;;;;;4991816;28;20044;-65
2023/10/29 00:31:33;;;;;;;0.25;0.25;;;11.70;99.90;;;;;;4981612;28;20042;-65
2023/10/29 00:33:59;;;;;;;0.20;0.20;;;11.80;99.90;;;;;;4986420;28;20445;-66
2023/10/29 00:36:25;;;;;;;0.10;0.10;;;11.70;99.90;;;;;;4983040;28;20479;-65
2023/10/29 00:38:50;;;;;;;0.65;0.30;;;11.70;99.90;;;;;;4988524;28;20050;-65
2023/10/29 00:41:16;;;;;;;0.10;0.10;;;11.70;99.90;;;;;;4990135;28;20034;-66
2023/10/29 00:43:42;;;;;;;0.10;0.10;;;11.70;99.90;;;;;;4987170;28;20057;-66
2023/10/29 00:46:10;;;;;;;0.00;0.00;;;11.70;99.90;;;;;;4989615;28;20060;-65
2023/10/29 00:48:37;;;;;;;0.03;0.03;;;11.80;99.90;;;;;;4984631;28;20050;-66
2023/10/29 00:51:03;;;;;;;0.08;0.08;;;11.80;99.90;;;;;;4989643;28;20129;-66
2023/10/29 00:53:29;;;;;;;0.10;0.10;;;11.80;99.90;;;;;;5002079;28;20134;-67
2023/10/29 00:55:55;;;;;;;0.10;0.10;;;11.80;99.90;;;;;;4977688;28;20054;-66
2023/10/29 00:58:24;;;;;;;0.10;0.10;;;11.90;99.90;;;;;;4988169;28;20077;-66
2023/10/29 01:00:49;;;;;;;0.00;0.00;;;11.90;99.90;;;;;;4988500;28;20046;-65
2023/10/29 01:03:18;;;;;;;0.10;0.10;;;11.90;99.90;;;;;;4980667;28;20055;-65
2023/10/29 01:05:44;;;;;;;0.10;0.10;;;11.90;99.90;;;;;;4989343;28;20043;-66
2023/10/29 01:08:10;;;;;;;0.00;0.00;;;11.90;99.90;;;;;;4988156;28;20043;-66
2023/10/29 01:10:36;;;;;;;0.10;0.10;;;11.90;99.90;;;;;;4989082;28;20046;-66
2023/10/29 01:13:01;;;;;;;0.17;0.17;;;11.90;99.90;;;;;;4980872;28;20494;-66
2023/10/29 01:15:27;;;;;;;0.10;0.10;;;11.90;99.90;;;;;;4987691;28;20050;-66
2023/10/29 01:17:52;;;;;;;0.10;0.10;;;12.00;99.90;;;;;;4988285;28;20049;-66
2023/10/29 01:20:18;;;;;;;0.00;0.00;;;12.00;99.90;;;;;;4989354;28;20081;-66
2023/10/29 01:22:44;;;;;;;0.13;0.13;;;12.00;99.90;;;;;;4983246;28;20085;-66
2023/10/29 01:25:10;;;;;;;0.00;0.00;;;12.00;99.90;;;;;;4990923;28;20371;-66
2023/10/29 01:27:39;;;;;;;0.20;0.20;;;12.10;99.90;;;;;;4989087;28;20047;-66
2023/10/29 01:30:05;;;;;;;0.10;0.10;;;12.10;99.90;;;;;;4985895;28;20097;-66
2023/10/29 01:32:31;;;;;;;0.30;0.30;;;12.10;99.90;;;;;;4978002;28;20049;-66
2023/10/29 01:34:57;;;;;;;0.10;0.10;;;12.10;99.90;;;;;;4988985;28;20072;-66
2023/10/29 01:37:23;;;;;;;0.10;0.10;;;12.10;99.90;;;;;;4989256;28;20482;-66
2023/10/29 01:39:49;;;;;;;0.10;0.10;;;12.10;99.90;;;;;;4977404;28;20105;-66
2023/10/29 01:42:15;;;;;;;0.00;0.00;;;12.20;99.90;;;;;;4985022;28;20038;-66
2023/10/29 01:44:40;;;;;;;0.00;0.00;;;12.30;99.90;;;;;;4989621;28;20069;-66
2023/10/29 01:47:06;;;;;;;0.00;0.00;;;12.30;99.90;;;;;;4980739;28;20501;-65
2023/10/29 01:49:32;;;;;;;0.10;0.10;;;12.30;99.90;;;;;;4982854;28;20042;-66
2023/10/29 01:51:57;;;;;;;0.10;0.10;;;12.30;99.90;;;;;;4986121;28;20046;-65
2023/10/29 01:54:23;;;;;;;0.10;0.10;;;12.30;99.90;;;;;;4990190;28;20129;-66
2023/10/29 01:56:48;;;;;;;0.38;0.38;;;12.30;99.90;;;;;;4979874;28;20034;-67
2023/10/29 01:59:14;;;;;;;0.15;0.15;;;12.40;99.90;;;;;;4986029;28;20569;-67
2023/10/29 02:01:41;;;;;;;0.10;0.10;;;12.40;99.90;;;;;;4980031;28;20038;-67
2023/10/29 02:04:10;;;;;;;0.00;0.00;;;12.30;99.90;;;;;;4986421;28;20104;-67
2023/10/29 02:06:39;;;;;;;0.47;0.47;;;12.40;99.90;;;;;;4983802;28;20038;-66
2023/10/29 02:09:09;;;;;;;0.10;0.10;;;12.40;99.90;;;;;;4983967;28;20104;-67
2023/10/29 02:11:36;;;;;;;0.10;0.10;;;12.50;99.90;;;;;;4988748;28;20062;-67
2023/10/29 02:14:02;;;;;;;0.10;0.10;;;12.50;99.90;;;;;;4989604;28;20549;-67
2023/10/29 02:16:28;;;;;;;0.10;0.10;;;12.40;99.90;;;;;;4984925;28;20050;-67
2023/10/29 02:18:53;;;;;;;0.05;0.05;;;12.50;99.90;;;;;;4982843;28;20050;-66
2023/10/29 02:21:20;;;;;;;0.00;0.00;;;12.40;99.90;;;;;;4986448;28;20138;-67
2023/10/29 02:23:46;;;;;;;0.10;0.10;;;12.50;99.90;;;;;;4983303;28;20089;-66
2023/10/29 02:26:12;;;;;;;0.10;0.10;;;12.50;99.90;;;;;;4986793;28;20069;-66
2023/10/29 02:28:37;;;;;;;0.93;0.85;;;12.50;99.90;;;;;;4989574;28;20498;-66
2023/10/29 02:31:03;;;;;;;0.00;0.00;;;12.50;99.90;;;;;;4984123;28;20066;-66
2023/10/29 02:33:30;;;;;;;0.00;0.00;;;12.60;99.90;;;;;;4983389;28;20054;-66
2023/10/29 02:35:56;;;;;;;0.10;0.10;;;12.60;99.90;;;;;;4989392;28;20042;-66
2023/10/29 02:38:22;;;;;;;0.00;0.00;;;12.60;99.90;;;;;;4986069;28;20050;-67
2023/10/29 02:40:48;;;;;;;0.57;0.57;;;12.60;99.90;;;;;;4983931;28;20057;-66
2023/10/29 02:43:13;;;;;;;0.00;0.00;;;12.70;99.90;;;;;;4993836;28;20129;-66
2023/10/29 02:45:40;;;;;;;0.00;0.00;;;12.70;99.90;;;;;;4982687;28;20050;-66
2023/10/29 02:48:06;;;;;;;0.03;0.03;;;12.70;99.90;;;;;;4986832;28;20050;-66
2023/10/29 02:50:32;;;;;;;0.10;0.10;;;12.70;99.90;;;;;;4992468;28;20038;-66
2023/10/29 02:52:57;;;;;;;5.78;2.47;;;12.70;99.90;;;;;;4985342;28;20063;-66
2023/10/29 02:55:23;;;;;;;0.03;0.03;;;12.80;99.90;;;;;;4991331;28;20046;-66
2023/10/29 02:57:48;;;;;;;0.10;0.10;;;12.80;99.90;;;;;;4980986;28;20055;-66
2023/10/29 03:00:14;;;;;;;0.00;0.00;;;12.80;99.90;;;;;;4991680;28;20047;-66
2023/10/29 03:02:40;;;;;;;0.20;0.20;;;12.80;99.90;;;;;;4990633;28;20074;-66
2023/10/29 03:05:09;;;;;;;0.00;0.00;;;12.80;99.90;;;;;;4986670;28;20112;-66
2023/10/29 03:07:34;;;;;;;0.10;0.10;;;12.80;99.90;;;;;;4990240;28;20057;-66
2023/10/29 03:10:00;;;;;;;0.00;0.00;;;12.80;99.90;;;;;;5007483;28;20418;-66
2023/10/29 03:12:25;;;;;;;0.10;0.10;;;12.80;99.90;;;;;;4985160;28;20043;-66
2023/10/29 03:14:51;;;;;;;0.20;0.20;;;12.80;99.90;;;;;;4990992;28;20157;-67
2023/10/29 03:17:16;;;;;;;0.10;0.10;;;12.80;99.90;;;;;;4981694;28;20051;-66
2023/10/29 03:19:42;;;;;;;0.00;0.00;;;12.80;99.90;;;;;;4988107;28;20046;-66
2023/10/29 03:22:08;;;;;;;0.10;0.10;;;12.80;99.90;;;;;;4991084;28;20046;-66
2023/10/29 03:24:33;;;;;;;0.10;0.10;;;12.80;99.90;;;;;;4988246;28;20112;-66
2023/10/29 03:26:59;;;;;;;0.00;0.00;;;12.80;99.90;;;;;;4985594;28;20510;-66
2023/10/29 03:29:24;;;;;;;0.00;0.00;;;12.80;99.90;;;;;;4989822;28;20034;-66
2023/10/29 03:31:50;;;;;;;0.10;0.10;;;12.80;99.90;;;;;;4990084;28;20049;-65
2023/10/29 03:34:16;;;;;;;0.10;0.10;;;12.80;99.90;;;;;;4988104;28;20073;-66
2023/10/29 03:36:41;;;;;;;0.10;0.10;;;12.80;99.90;;;;;;4992129;28;20038;-66
2023/10/29 03:39:07;;;;;;;0.00;0.00;;;12.80;99.90;;;;;;4992707;28;20520;-66
2023/10/29 03:41:33;;;;;;;0.10;0.10;;;12.80;99.90;;;;;;4984128;28;20138;-66
2023/10/29 03:43:58;;;;;;;0.10;0.10;;;12.80;99.90;;;;;;4989799;28;20042;-66
2023/10/29 03:46:24;;;;;;;0.20;0.20;;;12.80;99.90;;;;;;4992116;28;20057;-66
2023/10/29 03:48:50;;;;;;;0.05;0.05;;;12.80;99.90;;;;;;4985835;28;20040;-66
2023/10/29 03:51:16;;;;;;;0.00;0.00;;;12.80;99.90;;;;;;4988238;28;20125;-66
2023/10/29 03:53:41;;;;;;;0.10;0.10;;;12.80;99.90;;;;;;4992478;28;20061;-66
2023/10/29 03:56:08;;;;;;;0.10;0.10;;;12.80;99.90;;;;;;4989514;28;20066;-66
2023/10/29 03:58:33;;;;;;;0.00;0.00;;;12.80;99.90;;;;;;4982787;28;20507;-66
2023/10/29 04:01:01;;;;;;;0.00;0.00;;;12.80;99.90;;;;;;4992597;28;20049;-66
2023/10/29 04:03:28;;;;;;;0.00;0.00;;;12.80;99.90;;;;;;4991927;28;20050;-66
2023/10/29 04:05:54;;;;;;;0.00;0.00;;;12.80;99.90;;;;;;4985893;28;20051;-66
2023/10/29 04:08:19;;;;;;;0.20;0.20;;;12.80;99.90;;;;;;4982317;28;20125;-67
2023/10/29 04:10:45;;;;;;;0.10;0.10;;;12.90;99.90;;;;;;4991676;28;20494;-66
2023/10/29 04:13:10;;;;;;;0.10;0.10;;;12.90;99.90;;;;;;4991357;28;20410;-67
2023/10/29 04:15:36;;;;;;;0.10;0.10;;;12.90;99.90;;;;;;4981075;28;20069;-67
2023/10/29 04:18:01;;;;;;;0.10;0.10;;;12.90;99.90;;;;;;4983259;28;20503;-67
2023/10/29 04:20:27;;;;;;;0.00;0.00;;;12.90;99.90;;;;;;4982401;28;20053;-67
2023/10/29 04:22:53;;;;;;;0.00;0.00;;;13.00;99.90;;;;;;4983779;28;20402;-66
2023/10/29 04:25:19;;;;;;;0.10;0.10;;;13.00;99.90;;;;;;4983406;28;20038;-66
2023/10/29 04:27:44;;;;;;;0.10;0.10;;;12.90;99.90;;;;;;4995022;28;20046;-66
2023/10/29 04:30:10;;;;;;;0.05;0.05;;;12.80;99.90;;;;;;4983447;28;20903;-67
2023/10/29 04:32:36;;;;;;;0.00;0.00;;;12.80;99.90;;;;;;4985387;28;20038;-67
2023/10/29 04:35:01;;;;;;;0.03;0.03;;;12.70;99.90;;;;;;4984264;28;20394;-67
2023/10/29 04:37:27;;;;;;;0.03;0.03;;;12.60;99.90;;;;;;4988390;28;20058;-67
2023/10/29 04:39:53;;;;;;;0.15;0.15;;;12.50;99.90;;;;;;4980954;28;20053;-66
2023/10/29 04:42:18;;;;;;;0.10;0.10;;;12.40;99.90;;;;;;4989819;28;20089;-66
2023/10/29 04:44:44;;;;;;;0.00;0.00;;;12.40;99.90;;;;;;4986303;28;20042;-67
2023/10/29 04:47:09;;;;;;;0.00;0.00;;;12.30;99.90;;;;;;4983393;28;20066;-66
2023/10/29 04:49:35;;;;;;;0.10;0.10;;;12.40;99.90;;;;;;4990754;28;20074;-67
2023/10/29 04:52:01;;;;;;;0.00;0.00;;;12.40;99.90;;;;;;4985231;28;20038;-67
2023/10/29 04:54:26;;;;;;;0.10;0.10;;;12.30;99.90;;;;;;4982267;28;20050;-66
2023/10/29 04:56:52;;;;;;;0.00;0.00;;;12.30;99.90;;;;;;4988829;28;20054;-66
2023/10/29 04:59:17;;;;;;;0.10;0.10;;;12.20;99.90;;;;;;4989247;28;20064;-67
2023/10/29 05:01:43;;;;;;;0.00;0.00;;;12.20;99.90;;;;;;4978916;28;20046;-67
2023/10/29 05:04:08;;;;;;;0.00;0.00;;;12.20;99.90;;;;;;4984108;28;20537;-66
2023/10/29 05:06:34;;;;;;;0.10;0.10;;;12.20;99.90;;;;;;4988329;28;20070;-67
2023/10/29 05:08:59;;;;;;;0.20;0.20;;;12.20;99.90;;;;;;4990543;28;20046;-67
2023/10/29 05:11:25;;;;;;;0.00;0.00;;;12.20;99.90;;;;;;4984510;28;20042;-67
2023/10/29 05:13:51;;;;;;;0.10;0.10;;;12.20;99.90;;;;;;4984919;28;20050;-67
2023/10/29 05:16:17;;;;;;;0.00;0.00;;;12.20;99.90;;;;;;4983589;28;20049;-67
2023/10/29 05:18:42;;;;;;;0.05;0.05;;;12.20;99.90;;;;;;4988323;28;20041;-66
2023/10/29 05:21:08;;;;;;;0.35;0.35;;;12.30;99.90;;;;;;4988878;28;20129;-66
2023/10/29 05:23:38;;;;;;;0.00;0.00;;;12.30;99.90;;;;;;4981211;28;20054;-66
2023/10/29 05:26:04;;;;;;;0.10;0.10;;;12.30;99.90;;;;;;4987462;28;20051;-66
2023/10/29 05:28:29;;;;;;;0.10;0.10;;;12.30;99.90;;;;;;4985048;28;20050;-66
2023/10/29 05:30:55;;;;;;;0.10;0.10;;;12.30;99.90;;;;;;4977295;28;20046;-66
2023/10/29 05:33:21;;;;;;;0.10;0.10;;;12.30;99.90;;;;;;4986906;28;20078;-66
2023/10/29 05:35:46;;;;;;;0.00;0.00;;;12.30;99.90;;;;;;4989552;28;20046;-66
2023/10/29 05:38:12;;;;;;;0.00;0.00;;;12.40;99.90;;;;;;4984452;28;20046;-66
2023/10/29 05:40:38;;;;;;;0.47;0.47;;;12.40;99.90;;;;;;4984047;28;20054;-66
2023/10/29 05:43:04;;;;;;;0.00;0.00;;;12.50;99.90;;;;;;4988831;28;20076;-66
2023/10/29 05:45:29;;;;;;;0.00;0.00;;;12.50;99.90;;;;;;4988600;28;20062;-65
2023/10/29 05:47:56;;;;;;;0.10;0.10;;;12.60;99.90;;;;;;4983078;28;20046;-65
2023/10/29 05:50:22;;;;;;;0.08;0.08;;;12.60;99.90;;;;;;4986374;28;20069;-66
2023/10/29 05:52:48;;;;;;;0.00;0.00;;;12.60;99.90;;;;;;4983844;28;20878;-65
2023/10/29 05:55:14;;;;;;;0.00;0.00;;;12.60;99.90;;;;;;4983145;28;20049;-65
2023/10/29 05:57:40;;;;;;;0.00;0.00;;;12.60;99.90;;;;;;4988531;28;20504;-66
2023/10/29 06:00:07;;;;;;;0.08;0.08;;;12.70;99.90;;;;;;4987663;28;20050;-65
2023/10/29 06:02:33;;;;;;;0.00;0.00;;;12.70;99.90;;;;;;4984261;28;20044;-65
2023/10/29 06:04:58;;;;;;;0.00;0.00;;;12.70;99.90;;;;;;4984992;28;20442;-66
2023/10/29 06:07:24;;;;;;;0.00;0.00;;;12.70;99.90;;;;;;4984500;28;20506;-67
2023/10/29 06:09:50;;;;;;;0.03;0.03;;;12.70;99.90;;;;;;4988966;28;20049;-65
2023/10/29 06:12:15;;;;;;;0.10;0.10;;;12.70;99.90;;;;;;4988086;28;20042;-66
2023/10/29 06:14:45;;;;;;;0.00;0.00;;;12.60;99.90;;;;;;4982083;28;20042;-66
2023/10/29 06:17:10;;;;;;;0.10;0.10;;;12.60;99.90;;;;;;4993772;28;20073;-66
2023/10/29 06:19:36;;;;;;;0.00;0.00;;;12.50;99.90;;;;;;4990475;28;20073;-66
2023/10/29 06:22:01;;;;;;;0.10;0.10;;;12.50;99.90;;;;;;4990262;28;20049;-66
2023/10/29 06:24:27;;;;;;;0.00;0.00;;;12.40;99.90;;;;;;4990813;28;20148;-66
2023/10/29 06:26:53;;;;;;;0.13;0.13;;;12.40;99.90;;;;;;4989892;28;20045;-66
2023/10/29 06:29:18;;;;;;;0.10;0.10;;;12.30;99.90;;;;;;4984892;28;20042;-66
2023/10/29 06:31:44;;;;;;;0.10;0.10;;;12.30;99.90;;;;;;4993074;28;20046;-66
2023/10/29 06:34:10;;;;;;;0.00;0.00;;;12.30;99.90;;;;;;4993447;28;20089;-67
2023/10/29 06:36:36;;;;;;;0.10;0.10;;;12.30;99.90;;;;;;4977684;28;20059;-66
2023/10/29 06:39:01;;;;;;;0.10;0.10;;;12.20;99.90;;;;;;4988617;28;20043;-67
2023/10/29 06:41:27;;;;;;;0.10;0.10;;;12.20;99.90;;;;;;4992783;28;20104;-67
2023/10/29 06:43:52;;;;;;;0.10;0.10;;;12.20;99.90;;;;;;4991991;28;20600;-67
2023/10/29 06:46:18;;;;;;;0.20;0.20;;;12.20;99.90;;;;;;4986080;28;20042;-66
2023/10/29 06:48:43;;;;;;;0.10;0.10;;;12.20;99.90;;;;;;4990675;28;20046;-67
2023/10/29 06:51:15;;;;;;;0.10;0.10;;;12.20;99.90;;;;;;4990368;28;20590;-66
2023/10/29 06:53:41;;;;;;;0.00;0.00;;;12.30;99.90;;;;;;4983258;28;20050;-66
2023/10/29 06:56:07;;;;;;;0.00;0.00;;;12.40;99.90;;;;;;4985121;28;20042;-66
2023/10/29 06:58:33;;;;;;;0.05;0.05;;;12.40;99.90;;;;;;4982581;28;20054;-66
2023/10/29 07:01:05;;;;;;;0.10;0.10;;;12.40;99.90;;;;;;4992262;28;20069;-67
2023/10/29 07:03:32;;;;;;;0.00;0.00;;;12.50;99.90;;;;;;4980853;28;20437;-67
2023/10/29 07:06:09;;;;;;;0.15;0.15;;;12.50;99.90;;;;;;4990797;28;20050;-68
2023/10/29 07:08:35;;;;;;;0.10;0.10;;;12.50;99.90;;;;;;4981386;28;20069;-67
2023/10/29 07:11:02;;;;;;;0.00;0.00;;;12.60;99.90;;;;;;4987214;28;20546;-67
2023/10/29 07:13:28;;;;;;;0.57;0.57;;;12.60;99.90;;;;;;4987137;28;20054;-68
2023/10/29 07:15:54;;;;;;;0.10;0.10;;;12.60;99.90;;;;;;4986959;28;20093;-68
2023/10/29 07:18:20;;;;;;;0.00;0.00;;;12.70;99.90;;;;;;4992208;28;20038;-67
2023/10/29 07:20:46;;;;;;;0.63;0.63;;;12.70;99.90;;;;;;4992151;28;20065;-68
2023/10/29 07:23:12;;;;;;;0.10;0.10;;;12.70;99.90;;;;;;4979992;28;20074;-66
2023/10/29 07:25:37;;;;;;;0.00;0.00;;;12.70;99.90;;;;;;4985450;28;20498;-67
2023/10/29 07:28:03;;;;;;;0.00;0.00;;;12.80;99.90;;;;;;4991277;28;20038;-66
2023/10/29 07:30:30;;;;;;;0.00;0.00;;;12.80;99.90;;;;;;4989582;28;20050;-67
2023/10/29 07:32:55;;;;;;;0.10;0.10;;;12.80;99.90;;;;;;4990561;28;20402;-66
2023/10/29 07:35:21;;;;;;;0.00;0.00;;;12.80;99.90;;;;;;4982933;28;20043;-67
2023/10/29 07:37:47;;;;;;;0.08;0.08;;;12.80;99.90;;;;;;4986591;28;20054;-68
2023/10/29 07:40:12;;;;;;;0.00;0.00;;;12.90;99.90;;;;;;4984590;28;20043;-67
2023/10/29 07:42:38;;;;;;;0.00;0.00;;;12.90;99.90;;;;;;4989427;28;20042;-67
2023/10/29 07:45:04;;;;;;;0.00;0.00;;;12.90;99.90;;;;;;4992163;28;20129;-68
2023/10/29 07:47:31;;;;;;;0.52;0.40;;;12.90;99.90;;;;;;4986003;28;20499;-68
2023/10/29 07:49:57;;;;;;;0.20;0.20;;;12.90;99.90;;;;;;4978882;28;20050;-69
2023/10/29 07:52:22;;;;;;;0.25;0.20;;;12.80;99.90;;;;;;4987130;28;20049;-68
2023/10/29 07:54:48;;;;;;;0.98;0.90;;;12.70;99.90;;;;;;4981550;28;20058;-66
2023/10/29 07:57:13;;;;;;;0.00;0.00;;;12.50;99.90;;;;;;4981530;28;20043;-66
2023/10/29 07:59:39;;;;;;;0.00;0.00;;;12.50;99.90;;;;;;4990907;28;20066;-65
2023/10/29 08:02:05;;;;;;;0.10;0.10;;;12.40;99.90;;;;;;4991521;28;20556;-67
2023/10/29 08:04:30;;;;;;;0.00;0.00;;;12.30;99.90;;;;;;4990277;28;20093;-67
2023/10/29 08:06:56;;;;;;;0.40;0.40;;;12.30;99.90;;;;;;4992443;28;20051;-66
2023/10/29 08:09:22;;;;;;;0.00;0.00;;;12.30;99.90;;;;;;4990025;28;20041;-67
2023/10/29 08:11:48;;;;;;;0.10;0.10;;;12.20;99.90;;;;;;4993169;28;20050;-67
2023/10/29 08:14:14;;;;;;;0.10;0.10;;;12.20;99.90;;;;;;4995795;28;20076;-67
2023/10/29 08:16:41;;;;;;;7.30;2.20;;;12.20;99.90;;;;;;4992264;28;20097;-67
2023/10/29 08:19:07;;;;;;;0.00;0.00;;;12.20;99.90;;;;;;4980858;28;20097;-66
2023/10/29 08:21:33;;;;;;;0.00;0.00;;;12.20;99.90;;;;;;4982505;28;20228;-67
2023/10/29 08:23:58;;;;;;;0.57;0.57;;;12.20;99.90;;;;;;4984708;28;20193;-67
2023/10/29 08:26:26;;;;;;;0.10;0.10;;;12.20;99.90;;;;;;4983607;28;20042;-67
2023/10/29 08:28:52;;;;;;;7.43;1.38;;;12.20;99.90;;;;;;4987452;28;20069;-66
2023/10/29 08:31:18;;;;;;;0.00;0.00;;;12.30;99.90;;;;;;4982670;28;20752;-66
2023/10/29 08:33:43;;;;;;;0.10;0.10;;;12.30;99.90;;;;;;4986821;28;20034;-67
2023/10/29 08:36:09;;;;;;;0.00;0.00;;;12.40;99.90;;;;;;4985754;28;20405;-66
2023/10/29 08:38:35;;;;;;;0.10;0.10;;;12.40;99.90;;;;;;4990814;28;20054;-65
2023/10/29 08:41:01;;;;;;;0.28;0.28;;;12.30;99.90;;;;;;4990363;28;20511;-66
2023/10/29 08:43:27;;;;;;;0.10;0.10;;;12.40;99.90;;;;;;4983961;28;20125;-66
2023/10/29 08:45:52;;;;;;;7.38;2.30;;;12.40;99.90;;;;;;4985040;28;20441;-66
2023/10/29 08:48:18;;;;;;;0.10;0.10;;;12.40;99.90;;;;;;4985161;28;20039;-65
2023/10/29 08:50:43;;;;;;;0.10;0.10;;;12.40;99.90;;;;;;4986841;28;20073;-65
2023/10/29 08:53:09;;;;;;;0.85;0.47;;;12.50;99.90;;;;;;4981408;28;20038;-65
2023/10/29 08:55:35;;;;;;;0.38;0.38;;;12.50;99.90;;;;;;4988635;28;20486;-65
2023/10/29 08:58:01;;;;;;;0.05;0.05;;;12.40;99.90;;;;;;4989517;28;20153;-66
2023/10/29 09:00:26;;;;;;;0.00;0.00;;;12.40;99.90;;;;;;4984861;28;20129;-66
2023/10/29 09:02:52;;;;;;;0.03;0.03;;;12.50;99.90;;;;;;4986963;28;20450;-66
2023/10/29 09:05:18;;;;;;;0.10;0.10;;;12.40;99.90;;;;;;4989344;28;20120;-66
2023/10/29 09:07:44;;;;;;;0.00;0.00;;;12.40;99.90;;;;;;4990525;28;20054;-66
2023/10/29 09:10:10;;;;;;;0.10;0.10;;;12.40;99.90;;;;;;4985766;28;20042;-66
2023/10/29 09:12:36;;;;;;;0.08;0.08;;;12.30;99.90;;;;;;4980817;28;20050;-66
2023/10/29 09:15:02;;;;;;;0.40;0.40;;;12.30;99.90;;;;;;4983508;28;20042;-66
2023/10/29 09:17:28;;;;;;;0.10;0.10;;;12.30;99.90;;;;;;4987228;28;20089;-66
2023/10/29 09:19:54;;;;;;;0.10;0.10;;;12.30;99.90;;;;;;4990360;28;20069;-66
2023/10/29 09:22:20;;;;;;;1.25;0.82;;;12.30;99.90;;;;;;4983818;28;20046;-66
2023/10/29 09:24:45;;;;;;;0.20;0.20;;;12.40;99.90;;;;;;4984925;28;20129;-66
2023/10/29 09:27:11;;;;;;;0.80;0.80;;;12.40;99.90;;;;;;4978432;28;20101;-66
2023/10/29 09:29:36;;;;;;;0.75;0.35;;;12.40;99.90;;;;;;4987937;28;20047;-66
2023/10/29 09:32:07;;;;;;;0.10;0.10;;;12.40;99.90;;;;;;4987937;28;20048;-67
2023/10/29 09:34:33;;;;;;;0.10;0.10;;;12.50;99.90;;;;;;4983463;28;20078;-66
2023/10/29 09:36:59;;;;;;;0.10;0.10;;;12.90;99.90;;;;;;4985294;28;20134;-66
2023/10/29 09:39:24;;;;;;;0.00;0.00;;;12.80;99.90;;;;;;4976618;28;20098;-67
2023/10/29 09:41:53;;;;;;;0.00;0.00;;;13.00;99.90;;;;;;4988301;28;20705;-67
2023/10/29 09:44:20;;;;;;;0.03;0.03;;;13.30;99.90;;;;;;4996818;28;20054;-68
2023/10/29 09:46:51;;;;;;;0.00;0.00;;;13.70;99.90;;;;;;4986920;28;20423;-67
2023/10/29 09:49:19;;;;;;;0.00;0.00;;;14.00;99.90;;;;;;4989266;28;20049;-68
2023/10/29 09:51:45;;;;;;;0.05;0.05;;;14.20;99.90;;;;;;4983075;28;20042;-68
2023/10/29 09:54:12;;;;;;;0.00;0.00;;;14.30;99.90;;;;;;4988147;28;20105;-69
2023/10/29 09:56:37;;;;;;;0.00;0.00;;;14.30;99.90;;;;;;4989506;28;20088;-68
2023/10/29 09:59:06;;;;;;;0.10;0.10;;;14.10;99.90;;;;;;4988764;28;20495;-68
2023/10/29 10:01:33;;;;;;;0.00;0.00;;;13.90;99.90;;;;;;4977770;28;20065;-68
2023/10/29 10:03:58;;;;;;;0.10;0.10;;;13.80;99.90;;;;;;4981380;28;20054;-67
2023/10/29 10:06:27;;;;;;;0.20;0.20;;;13.70;99.90;;;;;;4988932;28;20116;-68
2023/10/29 10:08:59;;;;;;;2.25;1.08;;;13.70;99.90;;;;;;4981188;28;20577;-66
2023/10/29 10:11:25;;;;;;;0.10;0.10;;;13.60;99.90;;;;;;4979055;28;20046;-67
2023/10/29 10:13:51;;;;;;;0.00;0.00;;;13.60;99.90;;;;;;4986251;28;20161;-66
2023/10/29 10:16:17;;;;;;;0.10;0.10;;;13.60;99.90;;;;;;4977467;28;20089;-69
2023/10/29 10:18:51;;;;;;;0.10;0.10;;;13.60;99.90;;;;;;4983535;28;20483;-64
2023/10/29 10:21:20;;;;;;;0.00;0.00;;;13.60;99.90;;;;;;4988832;28;20034;-66
2023/10/29 10:23:47;;;;;;;0.65;0.65;;;13.40;99.90;;;;;;4978772;28;20510;-65
2023/10/29 10:26:14;;;;;;;0.08;0.08;;;13.30;99.90;;;;;;4984880;28;20077;-66
2023/10/29 10:28:53;;;;;;;0.00;0.00;;;13.30;99.90;;;;;;4990123;28;20058;-68
2023/10/29 10:31:19;;;;;;;2.50;0.70;;;13.40;99.90;;;;;;4983174;28;20452;-66
2023/10/29 10:33:44;;;;;;;0.10;0.10;;;13.40;99.90;;;;;;4983617;28;20130;-64
2023/10/29 10:36:10;;;;;;;0.20;0.20;;;13.40;99.90;;;;;;4989505;28;20526;-66
2023/10/29 10:38:51;;;;;;;0.10;0.10;;;13.40;99.90;;;;;;4987217;28;20465;-66
2023/10/29 10:41:16;;;;;;;0.10;0.10;;;13.50;99.90;;;;;;4970585;28;20042;-68
2023/10/29 10:43:42;;;;;;;0.10;0.10;;;13.50;99.90;;;;;;4984112;28;20096;-67
2023/10/29 10:46:11;;;;;;;0.10;0.10;;;13.30;99.90;;;;;;4982432;28;20096;-67
2023/10/29 10:48:37;;;;;;;0.10;0.10;;;13.30;99.90;;;;;;4985556;28;20069;-65
2023/10/29 10:51:05;;;;;;;0.10;0.10;;;13.30;99.90;;;;;;4980901;28;20034;-66
2023/10/29 10:53:33;;;;;;;0.03;0.03;;;13.30;99.90;;;;;;4987601;28;20425;-65
2023/10/29 10:55:59;;;;;;;0.10;0.10;;;13.30;99.90;;;;;;4990056;28;20055;-64
2023/10/29 10:58:26;;;;;;;0.10;0.10;;;13.40;99.90;;;;;;4981841;28;20050;-64
2023/10/29 11:00:52;;;;;;;0.10;0.10;;;13.40;99.90;;;;;;4983585;28;20042;-65
2023/10/29 11:03:21;;;;;;;0.00;0.00;;;13.40;99.90;;;;;;4991753;28;20073;-65
2023/10/29 11:05:46;;;;;;;0.00;0.00;;;13.40;99.90;;;;;;4993172;28;20047;-64
2023/10/29 11:08:16;;;;;;;0.25;0.25;;;13.50;99.90;;;;;;4986809;28;20450;-65
2023/10/29 11:10:46;;;;;;;0.20;0.20;;;13.50;99.90;;;;;;4989689;28;20046;-64
2023/10/29 11:13:20;;;;;;;0.15;0.15;;;13.60;99.90;;;;;;4990903;28;20383;-64
2023/10/29 11:15:49;;;;;;;0.35;0.35;;;13.60;99.90;;;;;;4985918;28;20818;-65
2023/10/29 11:18:26;;;;;;;0.00;0.00;;;13.70;99.90;;;;;;4989682;28;20046;-65
2023/10/29 11:20:52;;;;;;;0.10;0.10;;;13.70;99.90;;;;;;4991096;28;20478;-65
2023/10/29 11:23:28;;;;;;;0.10;0.10;;;13.90;99.90;;;;;;4982983;28;20494;-66
2023/10/29 11:26:16;;;;;;;0.10;0.10;;;13.90;99.90;;;;;;4982563;28;20525;-64
2023/10/29 11:28:45;;;;;;;0.10;0.10;;;14.10;99.90;;;;;;4981112;28;20038;-66
2023/10/29 11:31:12;;;;;;;0.00;0.00;;;14.20;99.90;;;;;;4982914;28;20034;-65
2023/10/29 11:33:40;;;;;;;0.20;0.20;;;14.20;99.90;;;;;;4992530;28;20057;-65
2023/10/29 11:36:32;;;;;;;0.10;0.10;;;14.10;99.90;;;;;;4990221;28;20039;-66
2023/10/29 11:39:16;;;;;;;0.00;0.00;;;14.00;99.90;;;;;;4988170;28;20498;-66
2023/10/29 11:41:42;;;;;;;;;;;14.20;99.90;;;;;;4991107;28;20042;-66
2023/10/29 11:44:25;;;;;;;1.08;1.08;;;14.10;99.90;;;;;;4992526;28;19932;-66
2023/10/29 11:47:01;;;;;;;0.10;0.10;;;14.70;99.90;;;;;;4980640;28;20085;-65
2023/10/29 11:49:28;;;;;;;1.08;1.02;;;15.30;99.90;;;;;;4985766;28;20054;-65
2023/10/29 11:51:56;;;;;;;0.10;0.10;;;15.40;99.90;;;;;;4991609;28;20137;-66
2023/10/29 11:54:22;;;;;;;0.73;0.73;;;15.30;99.90;;;;;;4986596;28;20062;-66
2023/10/29 11:56:49;;;;;;;0.00;0.00;;;15.00;99.90;;;;;;4982409;28;20039;-66
2023/10/29 11:59:15;;;;;;;0.08;0.08;;;14.90;99.90;;;;;;4992114;28;20145;-66
2023/10/29 12:01:44;;;;;;;0.03;0.03;;;14.80;99.90;;;;;;4992218;28;20137;-66
2023/10/29 12:04:12;;;;;;;5.38;2.28;;;14.70;99.90;;;;;;4984760;28;20398;-66
2023/10/29 12:06:45;;;;;;;0.75;0.75;;;14.60;99.90;;;;;;4984149;28;20050;-65
2023/10/29 12:09:22;;;;;;;0.20;0.20;;;14.40;99.90;;;;;;4991624;28;20046;-66
2023/10/29 12:11:52;;;;;;;0.00;0.00;;;14.20;99.90;;;;;;5002223;28;20042;-65
2023/10/29 12:14:42;;;;;;;0.00;0.00;;;14.10;99.90;;;;;;4980768;28;20049;-66
2023/10/29 12:17:08;;;;;;;0.00;0.00;;;14.00;99.90;;;;;;4988107;28;20050;-66
2023/10/29 12:19:41;;;;;;;0.00;0.00;;;13.90;99.90;;;;;;4984320;28;20043;-66
2023/10/29 12:22:20;;;;;;;0.00;0.00;;;14.00;99.90;;;;;;4987339;28;20401;-67
2023/10/29 12:24:48;;;;;;;0.10;0.10;;;14.00;99.90;;;;;;4987556;28;20051;-67
2023/10/29 12:27:14;;;;;;;3.80;1.58;;;14.00;99.90;;;;;;4982735;28;20046;-66
2023/10/29 12:29:40;;;;;;;0.22;0.22;;;14.00;99.90;;;;;;4987212;28;20445;-66
2023/10/29 12:32:16;;;;;;;0.40;0.40;;;14.00;99.90;;;;;;4979639;28;20073;-67
2023/10/29 12:34:49;;;;;;;0.17;0.17;;;13.90;99.90;;;;;;4991031;28;20504;-67
2023/10/29 12:37:20;;;;;;;0.00;0.00;;;13.90;99.90;;;;;;4988823;28;22045;-67
2023/10/29 12:39:47;;;;;;;0.00;0.00;;;13.90;99.90;;;;;;4984996;28;20070;-66
2023/10/29 12:42:13;;;;;;;0.00;0.00;;;13.80;99.90;;;;;;4991649;28;20050;-66
2023/10/29 12:44:38;;;;;;;0.28;0.28;;;14.00;99.90;;;;;;4990455;28;20105;-66
2023/10/29 12:47:06;;;;;;;0.57;0.43;;;14.20;99.90;;;;;;4981606;28;20038;-66